sensor_id;sensor_type;location;lat;lon;timestamp;temperature;humidity
12849;DHT22;6493;50.928;7.172;2022-10-16T00:02:44;11.50;71.40
12849;DHT22;6493;50.928;7.172;2022-10-16T00:07:53;11.50;71.40
12849;DHT22;6493;50.928;7.172;2022-10-16T00:12:57;11.50;71.30
12849;DHT22;6493;50.928;7.172;2022-10-16T00:18:27;11.50;71.20
12849;DHT22;6493;50.928;7.172;2022-10-16T00:23:59;11.50;71.30
12849;DHT22;6493;50.928;7.172;2022-10-16T00:29:04;11.40;71.30
12849;DHT22;6493;50.928;7.172;2022-10-16T00:34:33;11.40;71.20
12849;DHT22;6493;50.928;7.172;2022-10-16T00:40:06;11.40;71.20
12849;DHT22;6493;50.928;7.172;2022-10-16T00:45:10;11.40;71.40
12849;DHT22;6493;50.928;7.172;2022-10-16T00:50:40;11.40;71.20
12849;DHT22;6493;50.928;7.172;2022-10-16T00:56:11;11.30;71.10
12849;DHT22;6493;50.928;7.172;2022-10-16T01:01:15;11.30;71.30
12849;DHT22;6493;50.928;7.172;2022-10-16T01:06:50;11.20;70.90
12849;DHT22;6493;50.928;7.172;2022-10-16T01:12:23;11.20;71.20
12849;DHT22;6493;50.928;7.172;2022-10-16T01:17:36;11.20;71.20
12849;DHT22;6493;50.928;7.172;2022-10-16T01:23:15;11.20;71.00
12849;DHT22;6493;50.928;7.172;2022-10-16T01:28:23;11.10;71.30
12849;DHT22;6493;50.928;7.172;2022-10-16T01:33:55;11.10;71.90
12849;DHT22;6493;50.928;7.172;2022-10-16T01:39:28;11.10;71.00
12849;DHT22;6493;50.928;7.172;2022-10-16T01:45:00;11.10;71.00
12849;DHT22;6493;50.928;7.172;2022-10-16T01:50:28;11.10;71.10
12849;DHT22;6493;50.928;7.172;2022-10-16T01:55:57;11.00;71.10
12849;DHT22;6493;50.928;7.172;2022-10-16T02:01:29;11.00;71.10
12849;DHT22;6493;50.928;7.172;2022-10-16T02:07:23;11.00;71.00
12849;DHT22;6493;50.928;7.172;2022-10-16T02:12:55;10.90;71.00
12849;DHT22;6493;50.928;7.172;2022-10-16T02:18:02;10.90;71.10
12849;DHT22;6493;50.928;7.172;2022-10-16T02:23:37;10.90;71.00
12849;DHT22;6493;50.928;7.172;2022-10-16T02:29:10;10.80;71.00
12849;DHT22;6493;50.928;7.172;2022-10-16T02:34:40;10.80;71.10
12849;DHT22;6493;50.928;7.172;2022-10-16T02:40:09;10.80;71.40
12849;DHT22;6493;50.928;7.172;2022-10-16T02:45:37;10.80;71.20
12849;DHT22;6493;50.928;7.172;2022-10-16T02:51:11;10.80;72.00
12849;DHT22;6493;50.928;7.172;2022-10-16T02:56:14;10.90;71.70
12849;DHT22;6493;50.928;7.172;2022-10-16T03:01:47;10.90;71.50
12849;DHT22;6493;50.928;7.172;2022-10-16T03:06:52;10.90;71.60
12849;DHT22;6493;50.928;7.172;2022-10-16T03:12:45;10.90;71.50
12849;DHT22;6493;50.928;7.172;2022-10-16T03:17:52;10.90;71.60
12849;DHT22;6493;50.928;7.172;2022-10-16T03:22:57;10.90;71.50
12849;DHT22;6493;50.928;7.172;2022-10-16T03:28:25;10.90;71.40
12849;DHT22;6493;50.928;7.172;2022-10-16T03:33:57;10.90;71.40
12849;DHT22;6493;50.928;7.172;2022-10-16T03:39:02;10.90;71.60
12849;DHT22;6493;50.928;7.172;2022-10-16T03:44:30;10.90;71.40
12849;DHT22;6493;50.928;7.172;2022-10-16T03:49:58;10.90;72.10
12849;DHT22;6493;50.928;7.172;2022-10-16T03:55:06;10.90;71.30
12849;DHT22;6493;50.928;7.172;2022-10-16T04:00:11;10.90;71.40
12849;DHT22;6493;50.928;7.172;2022-10-16T04:05:40;10.90;71.30
12849;DHT22;6493;50.928;7.172;2022-10-16T04:11:10;10.90;71.30
12849;DHT22;6493;50.928;7.172;2022-10-16T04:16:38;10.80;71.40
12849;DHT22;6493;50.928;7.172;2022-10-16T04:22:07;10.90;71.40
12849;DHT22;6493;50.928;7.172;2022-10-16T04:27:12;10.80;71.30
12849;DHT22;6493;50.928;7.172;2022-10-16T04:32:20;10.80;71.30
12849;DHT22;6493;50.928;7.172;2022-10-16T04:37:23;10.80;71.40
12849;DHT22;6493;50.928;7.172;2022-10-16T04:42:53;10.80;71.40
12849;DHT22;6493;50.928;7.172;2022-10-16T04:48:26;10.80;71.40
12849;DHT22;6493;50.928;7.172;2022-10-16T04:53:29;10.80;71.70
12849;DHT22;6493;50.928;7.172;2022-10-16T04:58:59;10.70;71.30
12849;DHT22;6493;50.928;7.172;2022-10-16T05:04:26;10.80;71.40
12849;DHT22;6493;50.928;7.172;2022-10-16T05:09:32;10.70;71.30
12849;DHT22;6493;50.928;7.172;2022-10-16T05:14:36;10.70;71.30
12849;DHT22;6493;50.928;7.172;2022-10-16T05:20:08;10.70;71.40
12849;DHT22;6493;50.928;7.172;2022-10-16T05:25:37;10.70;71.50
12849;DHT22;6493;50.928;7.172;2022-10-16T05:30:42;10.70;71.50
12849;DHT22;6493;50.928;7.172;2022-10-16T05:36:12;10.70;71.50
12849;DHT22;6493;50.928;7.172;2022-10-16T05:41:16;10.60;71.60
12849;DHT22;6493;50.928;7.172;2022-10-16T05:46:50;10.70;71.50
12849;DHT22;6493;50.928;7.172;2022-10-16T05:51:53;10.60;71.60
12849;DHT22;6493;50.928;7.172;2022-10-16T05:57:25;10.70;71.60
12849;DHT22;6493;50.928;7.172;2022-10-16T06:02:30;10.60;71.50
12849;DHT22;6493;50.928;7.172;2022-10-16T06:07:58;10.60;71.40
12849;DHT22;6493;50.928;7.172;2022-10-16T06:13:26;10.60;71.40
12849;DHT22;6493;50.928;7.172;2022-10-16T06:18:56;10.60;71.40
12849;DHT22;6493;50.928;7.172;2022-10-16T06:24:48;10.60;71.40
12849;DHT22;6493;50.928;7.172;2022-10-16T06:29:53;10.60;71.60
12849;DHT22;6493;50.928;7.172;2022-10-16T06:34:58;10.60;71.50
12849;DHT22;6493;50.928;7.172;2022-10-16T06:40:26;10.60;71.50
12849;DHT22;6493;50.928;7.172;2022-10-16T06:45:54;10.60;71.60
12849;DHT22;6493;50.928;7.172;2022-10-16T06:51:24;10.60;71.90
12849;DHT22;6493;50.928;7.172;2022-10-16T06:56:52;10.60;72.20
12849;DHT22;6493;50.928;7.172;2022-10-16T07:02:19;10.70;72.30
12849;DHT22;6493;50.928;7.172;2022-10-16T07:07:54;10.80;72.60
12849;DHT22;6493;50.928;7.172;2022-10-16T07:12:58;10.90;72.80
12849;DHT22;6493;50.928;7.172;2022-10-16T07:18:08;11.00;72.80
12849;DHT22;6493;50.928;7.172;2022-10-16T07:23:13;11.10;73.00
12849;DHT22;6493;50.928;7.172;2022-10-16T07:29:06;11.20;72.90
12849;DHT22;6493;50.928;7.172;2022-10-16T07:34:15;11.40;73.50
12849;DHT22;6493;50.928;7.172;2022-10-16T07:39:20;11.50;73.30
12849;DHT22;6493;50.928;7.172;2022-10-16T07:44:48;11.70;74.00
12849;DHT22;6493;50.928;7.172;2022-10-16T07:50:16;11.70;73.00
12849;DHT22;6493;50.928;7.172;2022-10-16T07:55:51;11.80;73.80
12849;DHT22;6493;50.928;7.172;2022-10-16T08:00:54;11.90;73.30
12849;DHT22;6493;50.928;7.172;2022-10-16T08:06:22;12.00;73.50
12849;DHT22;6493;50.928;7.172;2022-10-16T08:11:52;12.10;73.20
12849;DHT22;6493;50.928;7.172;2022-10-16T08:17:19;12.20;73.90
12849;DHT22;6493;50.928;7.172;2022-10-16T08:22:48;12.50;74.80
12849;DHT22;6493;50.928;7.172;2022-10-16T08:27:53;13.10;75.80
12849;DHT22;6493;50.928;7.172;2022-10-16T08:33:47;13.80;77.90
12849;DHT22;6493;50.928;7.172;2022-10-16T08:39:15;14.70;76.70
12849;DHT22;6493;50.928;7.172;2022-10-16T08:44:33;15.50;76.10
12849;DHT22;6493;50.928;7.172;2022-10-16T08:50:09;16.20;76.50
12849;DHT22;6493;50.928;7.172;2022-10-16T08:55:41;16.70;75.30
12849;DHT22;6493;50.928;7.172;2022-10-16T09:00:49;17.00;73.60
12849;DHT22;6493;50.928;7.172;2022-10-16T09:06:29;17.30;73.80
12849;DHT22;6493;50.928;7.172;2022-10-16T09:12:08;17.40;72.50
12849;DHT22;6493;50.928;7.172;2022-10-16T09:44:41;16.90;68.50
12849;DHT22;6493;50.928;7.172;2022-10-16T09:49:51;16.90;69.60
12849;DHT22;6493;50.928;7.172;2022-10-16T09:54:57;17.00;69.60
12849;DHT22;6493;50.928;7.172;2022-10-16T10:00:08;17.10;69.30
12849;DHT22;6493;50.928;7.172;2022-10-16T10:05:20;17.10;68.60
12849;DHT22;6493;50.928;7.172;2022-10-16T10:10:25;17.20;68.90
12849;DHT22;6493;50.928;7.172;2022-10-16T10:15:41;17.30;68.60
12849;DHT22;6493;50.928;7.172;2022-10-16T10:20:44;17.40;67.80
12849;DHT22;6493;50.928;7.172;2022-10-16T10:25:52;17.40;68.10
12849;DHT22;6493;50.928;7.172;2022-10-16T10:31:05;17.50;66.20
12849;DHT22;6493;50.928;7.172;2022-10-16T10:36:18;17.40;66.20
12849;DHT22;6493;50.928;7.172;2022-10-16T10:41:54;17.40;65.60
12849;DHT22;6493;50.928;7.172;2022-10-16T10:47:07;17.30;65.00
12849;DHT22;6493;50.928;7.172;2022-10-16T10:52:33;17.10;65.50
12849;DHT22;6493;50.928;7.172;2022-10-16T10:57:43;17.00;65.20
12849;DHT22;6493;50.928;7.172;2022-10-16T11:02:54;17.10;65.90
12849;DHT22;6493;50.928;7.172;2022-10-16T11:08:08;17.20;66.80
12849;DHT22;6493;50.928;7.172;2022-10-16T11:13:24;17.40;65.10
12849;DHT22;6493;50.928;7.172;2022-10-16T11:18:37;17.50;62.40
12849;DHT22;6493;50.928;7.172;2022-10-16T11:23:51;17.50;65.00
12849;DHT22;6493;50.928;7.172;2022-10-16T11:28:56;17.70;65.40
12849;DHT22;6493;50.928;7.172;2022-10-16T11:34:06;17.80;65.80
12849;DHT22;6493;50.928;7.172;2022-10-16T11:39:20;18.00;65.30
12849;DHT22;6493;50.928;7.172;2022-10-16T11:44:34;18.10;64.90
12849;DHT22;6493;50.928;7.172;2022-10-16T11:49:40;18.20;64.70
12849;DHT22;6493;50.928;7.172;2022-10-16T11:54:49;18.30;64.50
12849;DHT22;6493;50.928;7.172;2022-10-16T11:59:57;18.40;64.50
12849;DHT22;6493;50.928;7.172;2022-10-16T12:05:17;18.50;63.20
12849;DHT22;6493;50.928;7.172;2022-10-16T12:10:24;18.60;61.70
12849;DHT22;6493;50.928;7.172;2022-10-16T12:15:31;18.40;61.80
12849;DHT22;6493;50.928;7.172;2022-10-16T12:20:57;18.30;61.70
12849;DHT22;6493;50.928;7.172;2022-10-16T12:26:01;18.20;61.60
12849;DHT22;6493;50.928;7.172;2022-10-16T12:31:06;18.00;61.90
12849;DHT22;6493;50.928;7.172;2022-10-16T12:36:16;18.00;62.20
12849;DHT22;6493;50.928;7.172;2022-10-16T12:41:31;17.90;61.90
12849;DHT22;6493;50.928;7.172;2022-10-16T12:46:38;17.80;62.10
12849;DHT22;6493;50.928;7.172;2022-10-16T12:51:43;17.90;62.20
12849;DHT22;6493;50.928;7.172;2022-10-16T12:56:58;17.90;61.80
12849;DHT22;6493;50.928;7.172;2022-10-16T13:02:29;17.90;61.30
12849;DHT22;6493;50.928;7.172;2022-10-16T13:07:51;17.90;60.20
12849;DHT22;6493;50.928;7.172;2022-10-16T13:13:18;17.80;60.50
12849;DHT22;6493;50.928;7.172;2022-10-16T13:18:29;17.70;59.70
12849;DHT22;6493;50.928;7.172;2022-10-16T13:23:40;17.60;59.90
12849;DHT22;6493;50.928;7.172;2022-10-16T13:28:45;17.50;60.00
12849;DHT22;6493;50.928;7.172;2022-10-16T13:33:51;17.40;60.20
12849;DHT22;6493;50.928;7.172;2022-10-16T13:39:20;17.40;59.20
12849;DHT22;6493;50.928;7.172;2022-10-16T13:44:24;17.30;59.40
12849;DHT22;6493;50.928;7.172;2022-10-16T13:49:28;17.20;59.90
12849;DHT22;6493;50.928;7.172;2022-10-16T13:54:33;17.20;60.20
12849;DHT22;6493;50.928;7.172;2022-10-16T13:59:37;17.10;60.10
12849;DHT22;6493;50.928;7.172;2022-10-16T14:04:41;17.10;60.10
12849;DHT22;6493;50.928;7.172;2022-10-16T14:09:48;17.00;60.30
12849;DHT22;6493;50.928;7.172;2022-10-16T14:14:54;17.00;60.80
12849;DHT22;6493;50.928;7.172;2022-10-16T14:19:59;16.90;59.80
12849;DHT22;6493;50.928;7.172;2022-10-16T14:25:23;16.80;59.70
12849;DHT22;6493;50.928;7.172;2022-10-16T14:30:30;16.70;59.60
12849;DHT22;6493;50.928;7.172;2022-10-16T14:35:39;16.70;60.00
12849;DHT22;6493;50.928;7.172;2022-10-16T14:41:05;16.60;60.20
12849;DHT22;6493;50.928;7.172;2022-10-16T14:46:12;16.60;59.90
12849;DHT22;6493;50.928;7.172;2022-10-16T14:51:18;16.50;60.00
12849;DHT22;6493;50.928;7.172;2022-10-16T14:56:25;16.50;60.30
12849;DHT22;6493;50.928;7.172;2022-10-16T15:01:35;16.40;60.40
12849;DHT22;6493;50.928;7.172;2022-10-16T15:06:38;16.40;60.40
12849;DHT22;6493;50.928;7.172;2022-10-16T15:11:43;16.40;60.70
12849;DHT22;6493;50.928;7.172;2022-10-16T15:16:48;16.40;60.70
12849;DHT22;6493;50.928;7.172;2022-10-16T15:21:52;16.30;60.80
12849;DHT22;6493;50.928;7.172;2022-10-16T15:26:57;16.40;60.90
12849;DHT22;6493;50.928;7.172;2022-10-16T15:32:00;16.30;60.70
12849;DHT22;6493;50.928;7.172;2022-10-16T15:37:04;16.30;60.70
12849;DHT22;6493;50.928;7.172;2022-10-16T15:42:09;16.20;60.70
12849;DHT22;6493;50.928;7.172;2022-10-16T15:47:12;16.10;60.70
12849;DHT22;6493;50.928;7.172;2022-10-16T15:52:16;16.00;60.80
12849;DHT22;6493;50.928;7.172;2022-10-16T15:57:21;16.00;61.00
12849;DHT22;6493;50.928;7.172;2022-10-16T16:02:25;15.90;61.10
12849;DHT22;6493;50.928;7.172;2022-10-16T16:07:32;15.90;61.30
12849;DHT22;6493;50.928;7.172;2022-10-16T16:12:38;15.80;61.20
12849;DHT22;6493;50.928;7.172;2022-10-16T16:17:41;15.70;61.20
12849;DHT22;6493;50.928;7.172;2022-10-16T16:22:46;15.70;61.30
12849;DHT22;6493;50.928;7.172;2022-10-16T16:27:51;15.60;61.30
12849;DHT22;6493;50.928;7.172;2022-10-16T16:32:54;15.60;61.40
12849;DHT22;6493;50.928;7.172;2022-10-16T16:37:58;15.50;61.40
12849;DHT22;6493;50.928;7.172;2022-10-16T16:43:03;15.40;61.50
12849;DHT22;6493;50.928;7.172;2022-10-16T16:48:07;15.40;61.70
12849;DHT22;6493;50.928;7.172;2022-10-16T16:53:10;15.30;61.80
12849;DHT22;6493;50.928;7.172;2022-10-16T16:58:15;15.30;62.70
12849;DHT22;6493;50.928;7.172;2022-10-16T17:03:19;15.20;62.00
12849;DHT22;6493;50.928;7.172;2022-10-16T17:08:22;15.20;62.10
12849;DHT22;6493;50.928;7.172;2022-10-16T17:13:29;15.10;62.30
12849;DHT22;6493;50.928;7.172;2022-10-16T17:18:34;15.10;62.60
12849;DHT22;6493;50.928;7.172;2022-10-16T17:23:37;15.00;62.60
12849;DHT22;6493;50.928;7.172;2022-10-16T17:28:43;15.00;62.80
12849;DHT22;6493;50.928;7.172;2022-10-16T17:33:47;14.90;62.80
12849;DHT22;6493;50.928;7.172;2022-10-16T17:38:50;14.90;63.00
12849;DHT22;6493;50.928;7.172;2022-10-16T17:43:56;14.90;63.00
12849;DHT22;6493;50.928;7.172;2022-10-16T17:48:59;14.90;63.20
12849;DHT22;6493;50.928;7.172;2022-10-16T17:54:03;14.80;63.10
12849;DHT22;6493;50.928;7.172;2022-10-16T17:59:09;14.80;63.50
12849;DHT22;6493;50.928;7.172;2022-10-16T18:04:15;14.80;63.50
12849;DHT22;6493;50.928;7.172;2022-10-16T18:09:19;14.70;63.40
12849;DHT22;6493;50.928;7.172;2022-10-16T18:14:25;14.70;63.40
12849;DHT22;6493;50.928;7.172;2022-10-16T18:19:28;14.70;63.40
12849;DHT22;6493;50.928;7.172;2022-10-16T18:24:32;14.70;63.80
12849;DHT22;6493;50.928;7.172;2022-10-16T18:29:37;14.60;63.60
12849;DHT22;6493;50.928;7.172;2022-10-16T18:34:40;14.60;63.60
12849;DHT22;6493;50.928;7.172;2022-10-16T18:39:45;14.60;63.70
12849;DHT22;6493;50.928;7.172;2022-10-16T18:44:51;14.60;63.90
12849;DHT22;6493;50.928;7.172;2022-10-16T18:49:54;14.60;63.80
12849;DHT22;6493;50.928;7.172;2022-10-16T18:54:58;14.50;63.90
12849;DHT22;6493;50.928;7.172;2022-10-16T19:00:03;14.50;64.10
12849;DHT22;6493;50.928;7.172;2022-10-16T19:05:08;14.50;64.20
12849;DHT22;6493;50.928;7.172;2022-10-16T19:10:17;14.50;64.20
12849;DHT22;6493;50.928;7.172;2022-10-16T19:15:22;14.50;64.40
12849;DHT22;6493;50.928;7.172;2022-10-16T19:20:25;14.50;64.50
12849;DHT22;6493;50.928;7.172;2022-10-16T19:25:29;14.50;64.60
12849;DHT22;6493;50.928;7.172;2022-10-16T19:30:36;14.40;65.10
12849;DHT22;6493;50.928;7.172;2022-10-16T19:35:40;14.40;64.70
12849;DHT22;6493;50.928;7.172;2022-10-16T19:40:43;14.40;64.80
12849;DHT22;6493;50.928;7.172;2022-10-16T19:45:48;14.40;64.80
12849;DHT22;6493;50.928;7.172;2022-10-16T19:50:52;14.30;64.80
12849;DHT22;6493;50.928;7.172;2022-10-16T19:55:56;14.40;64.80
12849;DHT22;6493;50.928;7.172;2022-10-16T20:01:01;14.30;65.20
12849;DHT22;6493;50.928;7.172;2022-10-16T20:06:06;14.30;65.50
12849;DHT22;6493;50.928;7.172;2022-10-16T20:11:11;14.30;65.80
12849;DHT22;6493;50.928;7.172;2022-10-16T20:16:17;14.30;66.00
12849;DHT22;6493;50.928;7.172;2022-10-16T20:21:23;14.30;66.00
12849;DHT22;6493;50.928;7.172;2022-10-16T20:26:27;14.30;66.10
12849;DHT22;6493;50.928;7.172;2022-10-16T20:31:33;14.20;65.90
12849;DHT22;6493;50.928;7.172;2022-10-16T20:36:38;14.20;66.10
12849;DHT22;6493;50.928;7.172;2022-10-16T20:41:43;14.20;66.30
12849;DHT22;6493;50.928;7.172;2022-10-16T20:46:48;14.20;66.40
12849;DHT22;6493;50.928;7.172;2022-10-16T20:51:52;14.10;66.50
12849;DHT22;6493;50.928;7.172;2022-10-16T20:56:55;14.10;66.80
12849;DHT22;6493;50.928;7.172;2022-10-16T21:02:00;14.10;66.80
12849;DHT22;6493;50.928;7.172;2022-10-16T21:07:04;14.10;66.80
12849;DHT22;6493;50.928;7.172;2022-10-16T21:12:08;14.10;66.80
12849;DHT22;6493;50.928;7.172;2022-10-16T21:17:13;14.00;66.80
12849;DHT22;6493;50.928;7.172;2022-10-16T21:22:17;14.00;67.10
12849;DHT22;6493;50.928;7.172;2022-10-16T21:27:20;14.00;67.00
12849;DHT22;6493;50.928;7.172;2022-10-16T21:32:25;14.00;67.10
12849;DHT22;6493;50.928;7.172;2022-10-16T21:37:29;13.90;67.20
12849;DHT22;6493;50.928;7.172;2022-10-16T21:42:33;13.90;67.10
12849;DHT22;6493;50.928;7.172;2022-10-16T21:47:37;13.90;67.10
12849;DHT22;6493;50.928;7.172;2022-10-16T21:52:41;13.90;67.10
12849;DHT22;6493;50.928;7.172;2022-10-16T21:57:45;13.90;67.20
12849;DHT22;6493;50.928;7.172;2022-10-16T22:02:49;13.80;67.20
12849;DHT22;6493;50.928;7.172;2022-10-16T22:07:53;13.80;67.40
12849;DHT22;6493;50.928;7.172;2022-10-16T22:12:56;13.80;67.80
12849;DHT22;6493;50.928;7.172;2022-10-16T22:18:01;13.70;67.60
12849;DHT22;6493;50.928;7.172;2022-10-16T22:23:05;13.70;67.70
12849;DHT22;6493;50.928;7.172;2022-10-16T22:28:08;13.70;67.70
12849;DHT22;6493;50.928;7.172;2022-10-16T22:33:13;13.70;67.80
12849;DHT22;6493;50.928;7.172;2022-10-16T22:38:17;13.70;68.50
12849;DHT22;6493;50.928;7.172;2022-10-16T22:43:20;13.70;68.20
12849;DHT22;6493;50.928;7.172;2022-10-16T22:48:25;13.70;69.00
12849;DHT22;6493;50.928;7.172;2022-10-16T22:53:29;13.70;68.70
12849;DHT22;6493;50.928;7.172;2022-10-16T22:58:33;13.70;68.60
12849;DHT22;6493;50.928;7.172;2022-10-16T23:03:38;13.60;68.70
12849;DHT22;6493;50.928;7.172;2022-10-16T23:08:42;13.60;69.30
12849;DHT22;6493;50.928;7.172;2022-10-16T23:13:45;13.60;69.10
12849;DHT22;6493;50.928;7.172;2022-10-16T23:18:50;13.60;69.00
12849;DHT22;6493;50.928;7.172;2022-10-16T23:23:55;13.60;69.40
12849;DHT22;6493;50.928;7.172;2022-10-16T23:28:58;13.60;68.90
12849;DHT22;6493;50.928;7.172;2022-10-16T23:34:03;13.60;69.20
12849;DHT22;6493;50.928;7.172;2022-10-16T23:39:07;13.60;69.20
12849;DHT22;6493;50.928;7.172;2022-10-16T23:44:10;13.60;69.20
12849;DHT22;6493;50.928;7.172;2022-10-16T23:49:15;13.60;69.10
12849;DHT22;6493;50.928;7.172;2022-10-16T23:54:19;13.60;69.10
12849;DHT22;6493;50.928;7.172;2022-10-16T23:59:22;13.60;68.90
